Time;durP1;ratioP1;P1;durP2;ratioP2;P2;SDS_P1;SDS_P2;PMS_P1;PMS_P2;Temp;Humidity;BMP_temperature;BMP_pressure;BME280_temperature;BME280_humidity;BME280_pressure;Samples;Min_cycle;Max_cycle;Signal;HPM_P1;HPM_P2
2023/01/20 00:04:14;;;;;;;22.20;9.85;;;-2.00;99.90;;;;;;21087821;28;20028;-78
2023/01/20 00:14:15;;;;;;;22.17;10.38;;;-2.00;99.90;;;;;;21018529;28;20029;-77
2023/01/20 00:24:16;;;;;;;21.58;10.88;;;-2.20;99.90;;;;;;20996951;28;20041;-78
2023/01/20 00:34:16;;;;;;;28.02;9.60;;;-2.20;99.90;;;;;;21025779;28;20486;-78
2023/01/20 00:44:17;;;;;;;16.27;9.70;;;-2.10;99.90;;;;;;21102305;28;20027;-77
2023/01/20 00:54:18;;;;;;;19.67;10.20;;;-2.10;99.90;;;;;;21103252;28;20039;-78
2023/01/20 01:04:19;;;;;;;18.60;9.70;;;-2.10;99.90;;;;;;21098550;28;20031;-78
2023/01/20 01:14:19;;;;;;;18.45;9.02;;;-2.20;99.90;;;;;;21097329;28;20485;-78
2023/01/20 01:24:20;;;;;;;10.25;5.93;;;-2.10;99.90;;;;;;21098655;28;20043;-78
2023/01/20 01:34:21;;;;;;;13.32;6.40;;;-2.20;99.90;;;;;;21094663;28;20048;-77
2023/01/20 01:44:25;;;;;;;7.65;4.25;;;-2.30;99.90;;;;;;21098079;28;20119;-77
2023/01/20 01:54:37;;;;;;;6.15;3.55;;;-2.40;99.90;;;;;;21083634;28;20043;-78
2023/01/20 02:04:38;;;;;;;4.05;2.63;;;-2.50;99.90;;;;;;20984022;28;20028;-78
2023/01/20 02:14:52;;;;;;;11.52;5.78;;;-2.50;99.90;;;;;;21082103;28;20032;-78
2023/01/20 02:24:59;;;;;;;17.02;8.13;;;-2.40;99.90;;;;;;21088216;28;20058;-77
2023/01/20 02:35:18;;;;;;;10.73;5.35;;;-2.40;99.90;;;;;;21106408;28;20036;-78
2023/01/20 02:45:45;;;;;;;23.17;10.85;;;-2.40;99.90;;;;;;21022676;28;20086;-78
2023/01/20 02:55:47;;;;;;;22.25;10.63;;;-2.40;99.90;;;;;;21061485;28;20044;-78
2023/01/20 03:05:56;;;;;;;23.20;11.45;;;-2.40;99.90;;;;;;21104988;28;20024;-78
2023/01/20 03:16:01;;;;;;;25.27;11.68;;;-2.50;99.90;;;;;;21048274;28;20525;-78
2023/01/20 03:26:07;;;;;;;30.42;13.02;;;-2.50;99.90;;;;;;21020360;28;20040;-78
2023/01/20 03:36:09;;;;;;;26.13;11.82;;;-2.50;99.90;;;;;;21024325;28;20158;-77
2023/01/20 03:46:40;;;;;;;21.25;10.77;;;-2.70;99.90;;;;;;21026384;28;20036;-78
2023/01/20 03:57:08;;;;;;;25.83;11.18;;;-2.70;99.90;;;;;;21015369;28;20063;-78
2023/01/20 04:07:13;;;;;;;23.80;12.35;;;-2.70;99.90;;;;;;21029712;28;20032;-78
2023/01/20 04:17:14;;;;;;;24.05;12.18;;;-2.70;99.90;;;;;;21117569;28;20047;-79
2023/01/20 04:27:15;;;;;;;26.38;12.60;;;-2.80;99.90;;;;;;21046855;28;20040;-77
2023/01/20 04:37:34;;;;;;;24.02;11.43;;;-2.80;99.90;;;;;;20976433;28;20045;-77
2023/01/20 04:47:34;;;;;;;26.70;12.30;;;-2.80;99.90;;;;;;21012393;28;20042;-78
2023/01/20 04:57:35;;;;;;;28.05;12.05;;;-2.90;99.90;;;;;;21008759;28;20032;-78
2023/01/20 05:07:36;;;;;;;27.85;12.70;;;-2.70;99.90;;;;;;21027066;28;20028;-77
2023/01/20 05:17:37;;;;;;;24.17;12.52;;;-2.80;99.90;;;;;;21081716;28;20024;-77
2023/01/20 05:27:38;;;;;;;25.70;12.05;;;-2.70;99.90;;;;;;21102930;28;20039;-78
2023/01/20 05:37:38;;;;;;;30.65;12.55;;;-2.80;99.90;;;;;;21037656;28;20034;-79
2023/01/20 05:47:39;;;;;;;29.40;13.45;;;-2.80;99.90;;;;;;21092925;28;20024;-77
2023/01/20 05:57:40;;;;;;;28.30;13.05;;;-2.70;99.90;;;;;;21029381;28;20117;-78
2023/01/20 06:07:41;;;;;;;29.75;11.77;;;-2.60;99.90;;;;;;21012948;28;20462;-78
2023/01/20 06:17:41;;;;;;;29.60;12.77;;;-2.60;99.90;;;;;;21005176;28;20500;-78
2023/01/20 06:27:42;;;;;;;28.25;12.40;;;-2.60;99.90;;;;;;21003843;28;20037;-78
2023/01/20 06:37:43;;;;;;;26.80;15.38;;;-2.60;99.90;;;;;;21010199;28;20037;-78
2023/01/20 06:47:48;;;;;;;27.20;14.48;;;-2.50;99.90;;;;;;20933239;28;20497;-78
2023/01/20 06:57:49;;;;;;;26.83;12.93;;;-2.50;99.90;;;;;;21028989;28;20118;-75
2023/01/20 07:07:49;;;;;;;33.55;14.75;;;-2.50;99.90;;;;;;21014298;28;20033;-78
2023/01/20 07:17:50;;;;;;;33.92;14.13;;;-2.40;99.90;;;;;;21032921;28;20044;-78
2023/01/20 07:27:52;;;;;;;31.90;16.98;;;-2.40;99.90;;;;;;21001755;28;20507;-79
2023/01/20 07:37:52;;;;;;;30.83;14.60;;;-2.40;99.90;;;;;;21024070;28;20036;-78
2023/01/20 07:47:55;;;;;;;32.80;14.35;;;-2.40;99.90;;;;;;21084221;28;20166;-79
2023/01/20 07:57:57;;;;;;;33.50;14.75;;;-2.40;99.90;;;;;;21105179;28;20028;-76
2023/01/20 08:07:58;;;;;;;32.63;15.02;;;-2.30;99.90;;;;;;21088798;28;20134;-77
2023/01/20 08:17:59;;;;;;;33.63;15.52;;;-2.20;99.90;;;;;;21013555;28;20040;-78
2023/01/20 08:28:00;;;;;;;37.13;18.70;;;-2.20;99.90;;;;;;20988460;28;20127;-77
2023/01/20 08:38:02;;;;;;;32.25;15.73;;;-2.00;99.90;;;;;;21013717;28;20033;-77
2023/01/20 08:48:03;;;;;;;36.65;16.92;;;-1.90;99.90;;;;;;20983517;28;20029;-77
2023/01/20 08:58:03;;;;;;;49.85;26.70;;;-1.90;99.90;;;;;;20998994;28;20502;-76
2023/01/20 09:08:04;;;;;;;37.70;16.17;;;-1.70;99.90;;;;;;20997882;28;20120;-77
2023/01/20 09:18:05;;;;;;;30.98;14.50;;;-1.50;99.90;;;;;;20998231;28;20083;-77
2023/01/20 09:28:06;;;;;;;31.55;15.00;;;-1.40;99.90;;;;;;20996058;28;20407;-77
2023/01/20 09:59:18;;;;;;;36.97;17.40;;;-1.20;99.90;;;;;;20920425;28;20037;-78
2023/01/20 10:09:34;;;;;;;30.30;13.10;;;-0.70;99.90;;;;;;20920220;28;20377;-78
2023/01/20 10:19:42;;;;;;;38.88;15.75;;;-0.20;99.90;;;;;;20991148;28;20033;-78
2023/01/20 10:29:50;;;;;;;34.70;15.38;;;0.90;99.90;;;;;;21009911;28;20037;-79
2023/01/20 10:40:14;;;;;;;31.65;14.93;;;1.80;99.90;;;;;;21002979;28;20116;-76
2023/01/20 10:50:33;;;;;;;32.22;14.27;;;1.50;99.90;;;;;;21017842;28;20040;-78
2023/01/20 11:00:34;;;;;;;30.92;13.98;;;1.80;99.90;;;;;;21011590;28;20025;-77
2023/01/20 11:10:35;;;;;;;32.28;14.85;;;2.30;99.90;;;;;;21018910;28;20040;-77
2023/01/20 11:20:36;;;;;;;30.60;14.57;;;1.80;99.90;;;;;;21021684;28;20247;-77
2023/01/20 11:30:37;;;;;;;28.67;14.57;;;3.30;99.90;;;;;;21089248;28;20063;-77
2023/01/20 11:40:50;;;;;;;29.95;14.63;;;3.30;99.90;;;;;;21089164;28;20028;-77
2023/01/20 11:50:56;;;;;;;33.60;13.75;;;3.80;99.90;;;;;;21017296;28;20112;-77
2023/01/20 12:01:00;;;;;;;28.58;13.95;;;4.20;99.90;;;;;;21002865;28;20399;-77
2023/01/20 12:11:05;;;;;;;28.50;14.07;;;3.90;99.90;;;;;;21001220;28;20031;-77
2023/01/20 12:21:16;;;;;;;22.08;11.63;;;6.50;99.90;;;;;;21006881;28;20430;-77
2023/01/20 12:31:19;;;;;;;24.02;11.82;;;4.30;99.90;;;;;;21002157;28;20032;-77
2023/01/20 12:41:57;;;;;;;18.52;9.93;;;3.10;99.90;;;;;;21000360;28;20074;-77
2023/01/20 12:51:57;;;;;;;21.83;9.25;;;2.60;99.90;;;;;;21010273;28;20025;-76
2023/01/20 13:02:36;;;;;;;15.60;8.65;;;3.40;99.90;;;;;;21023053;28;20032;-76
2023/01/20 13:13:01;;;;;;;21.15;10.55;;;2.90;99.90;;;;;;21009703;28;20552;-76
2023/01/20 13:23:04;;;;;;;22.40;11.27;;;3.40;99.90;;;;;;20998397;28;20050;-77
2023/01/20 13:33:15;;;;;;;19.13;10.15;;;2.60;99.90;;;;;;21024845;28;20107;-77
2023/01/20 13:43:21;;;;;;;20.57;10.37;;;2.60;99.90;;;;;;21001894;28;20025;-77
2023/01/20 13:53:27;;;;;;;22.02;10.10;;;2.20;99.90;;;;;;20991294;28;20278;-78
2023/01/20 14:03:42;;;;;;;21.10;10.57;;;2.10;99.90;;;;;;21025856;28;20032;-77
2023/01/20 14:13:53;;;;;;;18.88;9.05;;;2.30;99.90;;;;;;21008720;28;20037;-78
2023/01/20 14:23:55;;;;;;;22.35;10.85;;;2.40;99.90;;;;;;20995553;28;20032;-78
2023/01/20 14:34:19;;;;;;;23.95;10.73;;;2.10;99.90;;;;;;20991223;28;20612;-76
2023/01/20 14:44:22;;;;;;;29.63;9.75;;;2.50;99.90;;;;;;20992527;28;20051;-76
2023/01/20 14:54:50;;;;;;;21.73;11.90;;;2.40;99.90;;;;;;20995079;28;20039;-77
2023/01/20 15:04:51;;;;;;;27.23;13.13;;;2.40;99.90;;;;;;20994636;28;20066;-77
2023/01/20 15:15:22;;;;;;;22.13;10.23;;;3.10;99.90;;;;;;21000371;28;20391;-77
2023/01/20 15:25:23;;;;;;;17.67;10.25;;;3.00;99.90;;;;;;20993006;28;20449;-78
2023/01/20 15:35:25;;;;;;;13.95;7.63;;;3.90;99.90;;;;;;21005330;28;20021;-77
2023/01/20 15:45:25;;;;;;;16.50;7.75;;;4.30;99.90;;;;;;21004038;28;20033;-78
2023/01/20 15:55:26;;;;;;;16.35;7.35;;;2.70;99.90;;;;;;21003950;28;20602;-76
2023/01/20 16:05:27;;;;;;;9.90;6.20;;;2.50;99.90;;;;;;21002481;28;20509;-77
2023/01/20 16:15:28;;;;;;;12.30;6.97;;;2.20;99.90;;;;;;21003624;28;20056;-77
2023/01/20 16:25:29;;;;;;;15.98;7.32;;;1.90;99.90;;;;;;21003631;28;20740;-76
2023/01/20 16:35:30;;;;;;;20.50;9.98;;;1.40;99.90;;;;;;21010674;28;20119;-77
2023/01/20 16:45:32;;;;;;;34.10;14.23;;;0.90;99.90;;;;;;21052805;28;20055;-77
2023/01/20 16:55:32;;;;;;;16.95;7.55;;;0.40;99.90;;;;;;20997728;28;20032;-76
2023/01/20 17:05:34;;;;;;;20.50;9.27;;;0.30;99.90;;;;;;20992540;28;20501;-75
2023/01/20 17:15:39;;;;;;;16.70;9.00;;;0.00;99.90;;;;;;21013800;28;20090;-76
2023/01/20 17:25:40;;;;;;;23.27;9.95;;;0.10;99.90;;;;;;21078451;28;20032;-77
2023/01/20 17:35:43;;;;;;;23.98;11.02;;;-0.20;99.90;;;;;;21076504;28;20521;-77
2023/01/20 17:45:44;;;;;;;98.53;31.83;;;-0.10;99.90;;;;;;20997931;28;20024;-75
2023/01/20 17:55:44;;;;;;;34.55;16.13;;;-0.60;99.90;;;;;;20997185;28;20033;-77
2023/01/20 18:05:45;;;;;;;23.33;9.70;;;-1.20;99.90;;;;;;20993073;28;20032;-76
2023/01/20 18:15:46;;;;;;;27.45;14.52;;;-1.30;99.90;;;;;;20992193;28;20510;-75
2023/01/20 18:25:52;;;;;;;27.63;13.68;;;-1.40;99.90;;;;;;20999967;28;20036;-79
2023/01/20 18:35:54;;;;;;;29.55;13.57;;;-1.50;99.90;;;;;;20994700;28;20518;-76
2023/01/20 18:45:55;;;;;;;24.02;11.20;;;-1.40;99.90;;;;;;20997252;28;20043;-77
2023/01/20 18:56:00;;;;;;;54.78;22.33;;;-1.50;99.90;;;;;;21016952;28;20028;-77
2023/01/20 19:06:06;;;;;;;32.67;13.52;;;-2.30;99.90;;;;;;21012483;28;20043;-77
2023/01/20 19:16:09;;;;;;;21.33;9.88;;;-2.40;99.90;;;;;;21034125;28;20112;-78
2023/01/20 19:26:12;;;;;;;23.83;12.23;;;-2.40;99.90;;;;;;21038912;28;20119;-77
2023/01/20 19:36:16;;;;;;;22.02;10.07;;;-2.50;99.90;;;;;;20969152;28;20024;-75
2023/01/20 19:46:18;;;;;;;29.40;11.90;;;-2.60;99.90;;;;;;21030595;28;20028;-75
2023/01/20 19:56:19;;;;;;;27.88;11.05;;;-2.70;99.90;;;;;;21002812;28;20375;-76
2023/01/20 20:06:35;;;;;;;24.73;11.88;;;-2.70;99.90;;;;;;20986761;28;20064;-77
2023/01/20 20:16:37;;;;;;;23.88;10.80;;;-3.00;99.90;;;;;;20988162;28;20510;-77
2023/01/20 20:26:38;;;;;;;25.75;10.85;;;-3.00;99.90;;;;;;21040953;28;20422;-76
2023/01/20 20:36:39;;;;;;;31.35;11.00;;;-3.10;99.90;;;;;;21015257;28;20115;-77
2023/01/20 20:46:40;;;;;;;24.40;10.93;;;-3.40;99.90;;;;;;21003740;28;20028;-77
2023/01/20 20:56:41;;;;;;;25.30;11.02;;;-3.30;99.90;;;;;;21016276;28;20093;-77
2023/01/20 21:06:42;;;;;;;21.33;10.85;;;-3.30;99.90;;;;;;21013723;28;20093;-77
2023/01/20 21:16:42;;;;;;;19.10;10.13;;;-3.10;99.90;;;;;;21073312;28;20712;-77
2023/01/20 21:26:43;;;;;;;20.25;9.45;;;-3.70;99.90;;;;;;21013974;28;20040;-77
2023/01/20 21:36:44;;;;;;;26.25;9.20;;;-3.60;99.90;;;;;;21005288;28;20024;-77
2023/01/20 21:46:45;;;;;;;22.30;8.48;;;-3.50;99.90;;;;;;21013295;28;20032;-77
2023/01/20 21:56:47;;;;;;;16.38;7.90;;;-3.50;99.90;;;;;;21007074;28;20031;-77
2023/01/20 22:06:48;;;;;;;20.52;8.48;;;-3.60;99.90;;;;;;20998760;28;20117;-76
2023/01/20 22:16:49;;;;;;;13.52;6.93;;;-3.90;99.90;;;;;;21010209;28;20032;-77
2023/01/20 22:26:50;;;;;;;20.38;7.88;;;-4.00;99.90;;;;;;20993357;28;20032;-77
2023/01/20 22:36:50;;;;;;;16.10;8.18;;;-4.10;99.90;;;;;;20999321;28;20036;-77
2023/01/20 22:46:51;;;;;;;17.17;6.85;;;-4.10;99.90;;;;;;21019533;28;20028;-76
2023/01/20 22:56:52;;;;;;;14.65;6.85;;;-4.10;99.90;;;;;;21020694;28;20123;-77
2023/01/20 23:06:53;;;;;;;14.10;6.57;;;-4.30;99.90;;;;;;21022227;28;20389;-77
2023/01/20 23:16:53;;;;;;;16.98;7.65;;;-4.30;99.90;;;;;;21021669;28;20090;-77
2023/01/20 23:26:54;;;;;;;14.63;6.85;;;-4.40;99.90;;;;;;21001390;28;20041;-77
2023/01/20 23:36:56;;;;;;;15.10;7.68;;;-4.40;99.90;;;;;;21038371;28;20033;-76
2023/01/20 23:46:56;;;;;;;12.27;6.72;;;-4.40;99.90;;;;;;21017135;28;20033;-77
2023/01/20 23:56:57;;;;;;;14.93;6.45;;;-4.60;99.90;;;;;;21049096;28;20060;-77
